createdAt,value
2022-12-13T00:00:45.118Z,951.38
2022-12-13T00:01:45.340Z,951.35
2022-12-13T00:02:45.155Z,951.38
2022-12-13T00:03:45.132Z,951.33
2022-12-13T00:04:45.047Z,951.31
2022-12-13T00:05:45.156Z,951.32
2022-12-13T00:06:45.133Z,951.33
2022-12-13T00:07:45.184Z,951.25
2022-12-13T00:08:45.160Z,951.24
2022-12-13T00:09:45.126Z,951.25
2022-12-13T00:10:45.060Z,951.23
2022-12-13T00:12:45.068Z,951.21
2022-12-13T00:13:45.203Z,951.25
2022-12-13T00:14:45.164Z,951.26
2022-12-13T00:15:45.138Z,951.18
2022-12-13T00:16:45.254Z,951.2
2022-12-13T00:17:45.172Z,951.15
2022-12-13T00:18:45.252Z,951.12
2022-12-13T00:19:45.201Z,951.15
2022-12-13T00:20:45.171Z,951.13
2022-12-13T00:21:45.245Z,951.15
2022-12-13T00:22:45.241Z,951.17
2022-12-13T00:24:46.192Z,951.18
2022-12-13T00:25:45.094Z,951.15
2022-12-13T00:26:45.182Z,951.21
2022-12-13T00:27:45.252Z,951.16
2022-12-13T00:28:45.212Z,951.14
2022-12-13T00:29:45.188Z,951.16
2022-12-13T00:30:45.151Z,951.09
2022-12-13T00:31:59.132Z,951.06
2022-12-13T00:32:45.192Z,951.13
2022-12-13T00:33:45.271Z,951.11
2022-12-13T00:34:45.241Z,951.02
2022-12-13T00:35:45.108Z,951.12
2022-12-13T00:36:45.128Z,951.04
2022-12-13T00:37:45.226Z,951.06
2022-12-13T00:38:45.205Z,950.99
2022-12-13T00:39:45.158Z,950.9
2022-12-13T00:40:45.233Z,950.91
2022-12-13T00:41:45.322Z,951.01
2022-12-13T00:42:45.280Z,951.02
2022-12-13T00:44:45.089Z,951.01
2022-12-13T00:46:45.236Z,951.04
2022-12-13T00:47:45.143Z,951.03
2022-12-13T00:48:45.274Z,951.02
2022-12-13T00:49:45.243Z,950.97
2022-12-13T00:50:45.212Z,950.98
2022-12-13T00:51:45.165Z,950.97
2022-12-13T00:52:45.254Z,950.92
2022-12-13T00:53:45.167Z,950.94
2022-12-13T00:54:45.295Z,950.88
2022-12-13T00:55:45.255Z,950.9
2022-12-13T00:56:45.162Z,950.93
2022-12-13T00:57:45.285Z,950.92
2022-12-13T00:58:50.234Z,950.91
2022-12-13T00:59:45.402Z,950.92
2022-12-13T01:00:45.176Z,950.91
2022-12-13T01:01:45.364Z,950.96
2022-12-13T01:02:45.330Z,950.93
2022-12-13T01:03:45.317Z,950.9
2022-12-13T01:04:45.268Z,950.91
2022-12-13T01:06:12.808Z,950.92
2022-12-13T01:07:45.265Z,950.91
2022-12-13T01:08:45.338Z,950.89
2022-12-13T01:09:45.296Z,950.87
2022-12-13T01:10:45.270Z,950.83
2022-12-13T01:11:45.383Z,950.82
2022-12-13T01:13:45.271Z,950.8
2022-12-13T01:14:45.342Z,950.78
2022-12-13T01:15:45.322Z,950.76
2022-12-13T01:16:45.310Z,950.75
2022-12-13T01:17:45.343Z,950.73
2022-12-13T01:18:45.314Z,950.74
2022-12-13T01:19:45.291Z,950.75
2022-12-13T01:20:45.350Z,950.78
2022-12-13T01:21:45.225Z,950.8
2022-12-13T01:23:45.351Z,950.82
2022-12-13T01:24:45.326Z,950.78
2022-12-13T01:25:45.389Z,950.81
2022-12-13T01:27:45.238Z,950.83
2022-12-13T01:28:45.394Z,950.84
2022-12-13T01:29:45.380Z,950.82
2022-12-13T01:31:45.254Z,950.8
2022-12-13T01:32:45.250Z,950.78
2022-12-13T01:33:45.329Z,950.77
2022-12-13T01:34:45.250Z,950.72
2022-12-13T01:35:45.255Z,950.71
2022-12-13T01:36:45.330Z,950.69
2022-12-13T01:37:45.405Z,950.71
2022-12-13T01:39:45.477Z,950.74
2022-12-13T01:40:45.530Z,950.71
2022-12-13T01:41:45.397Z,950.67
2022-12-13T01:42:45.371Z,950.68
2022-12-13T01:43:45.419Z,950.7
2022-12-13T01:44:45.368Z,950.67
2022-12-13T01:45:45.305Z,950.66
2022-12-13T01:46:45.423Z,950.67
2022-12-13T01:47:45.404Z,950.62
2022-12-13T01:48:45.351Z,950.65
2022-12-13T01:49:45.284Z,950.61
2022-12-13T01:50:45.279Z,950.64
2022-12-13T01:51:45.364Z,950.68
2022-12-13T01:52:45.308Z,950.63
2022-12-13T01:53:45.616Z,950.66
2022-12-13T01:54:46.494Z,950.64
2022-12-13T01:55:45.555Z,950.6
2022-12-13T01:56:45.392Z,950.58
2022-12-13T01:57:45.926Z,950.57
2022-12-13T01:58:45.469Z,950.59
2022-12-13T01:59:45.395Z,950.61
2022-12-13T02:00:45.382Z,950.56
2022-12-13T02:01:45.342Z,950.58
2022-12-13T02:03:45.378Z,950.6
2022-12-13T02:05:45.423Z,950.64
2022-12-13T02:07:46.415Z,950.71
2022-12-13T02:08:45.428Z,950.66
2022-12-13T02:09:45.333Z,950.67
2022-12-13T02:10:45.458Z,950.66
2022-12-13T02:11:45.421Z,950.64
2022-12-13T02:12:45.349Z,950.67
2022-12-13T02:13:45.470Z,950.64
2022-12-13T02:14:45.429Z,950.6
2022-12-13T02:15:45.603Z,950.59
2022-12-13T02:16:45.472Z,950.54
2022-12-13T02:17:45.753Z,950.53
2022-12-13T02:18:45.500Z,950.62
2022-12-13T02:19:45.469Z,950.56
2022-12-13T02:20:45.359Z,950.57
2022-12-13T02:21:45.506Z,950.52
2022-12-13T02:22:45.492Z,950.49
2022-12-13T02:23:45.367Z,950.46
2022-12-13T02:24:45.516Z,950.43
2022-12-13T02:25:45.380Z,950.4
2022-12-13T02:26:45.466Z,950.42
2022-12-13T02:27:45.546Z,950.37
2022-12-13T02:28:45.389Z,950.38
2022-12-13T02:29:45.373Z,950.37
2022-12-13T02:30:45.539Z,950.39
2022-12-13T02:31:45.371Z,950.38
2022-12-13T02:32:45.447Z,950.35
2022-12-13T02:33:45.521Z,950.4
2022-12-13T02:34:45.403Z,950.41
2022-12-13T02:35:45.454Z,950.4
2022-12-13T02:36:45.551Z,950.39
2022-12-13T02:37:45.391Z,950.41
2022-12-13T02:38:45.557Z,950.43
2022-12-13T02:39:45.397Z,950.39
2022-12-13T02:40:45.489Z,950.35
2022-12-13T02:41:45.467Z,950.32
2022-12-13T02:42:45.409Z,950.36
2022-12-13T02:43:45.833Z,950.35
2022-12-13T02:44:45.740Z,950.36
2022-12-13T02:45:45.532Z,950.37
2022-12-13T02:46:45.532Z,950.39
2022-12-13T02:47:45.568Z,950.32
2022-12-13T02:48:45.427Z,950.34
2022-12-13T02:50:45.655Z,950.36
2022-12-13T02:51:46.088Z,950.35
2022-12-13T02:52:45.516Z,950.33
2022-12-13T02:53:45.444Z,950.31
2022-12-13T02:54:45.538Z,950.33
2022-12-13T02:55:45.517Z,950.32
2022-12-13T02:56:46.647Z,950.29
2022-12-13T02:57:45.555Z,950.3
2022-12-13T02:58:45.515Z,950.27
2022-12-13T02:59:45.592Z,950.28
2022-12-13T03:00:45.512Z,950.22
2022-12-13T03:02:45.750Z,950.26
2022-12-13T03:04:45.531Z,950.23
2022-12-13T03:05:45.461Z,950.19
2022-12-13T03:06:45.565Z,950.21
2022-12-13T03:07:45.624Z,950.16
2022-12-13T03:09:45.804Z,950.15
2022-12-13T03:10:45.551Z,950.08
2022-12-13T03:11:45.707Z,950.11
2022-12-13T03:12:45.564Z,950.07
2022-12-13T03:14:46.725Z,950.05
2022-12-13T03:15:45.506Z,950.09
2022-12-13T03:16:45.638Z,950.1
2022-12-13T03:17:45.486Z,950.07
2022-12-13T03:18:45.482Z,950.06
2022-12-13T03:19:46.738Z,950.04
2022-12-13T03:20:45.490Z,950.06
2022-12-13T03:21:47.849Z,950.03
2022-12-13T03:22:46.907Z,950.01
2022-12-13T03:23:45.617Z,950.02
2022-12-13T03:24:45.578Z,950.03
2022-12-13T03:25:45.652Z,950.04
2022-12-13T03:27:45.507Z,950.06
2022-12-13T03:28:45.657Z,950.05
2022-12-13T03:29:45.618Z,950.09
2022-12-13T03:30:45.590Z,950.07
2022-12-13T03:31:45.691Z,950.06
2022-12-13T03:32:45.623Z,950.07
2022-12-13T03:34:47.635Z,950.06
2022-12-13T03:35:46.042Z,950.04
2022-12-13T03:37:45.666Z,950.02
2022-12-13T03:38:45.550Z,950.04
2022-12-13T03:39:45.593Z,950.02
2022-12-13T03:40:45.675Z,949.98
2022-12-13T03:41:45.635Z,949.99
2022-12-13T03:42:45.540Z,950.03
2022-12-13T03:43:45.670Z,949.99
2022-12-13T03:44:45.650Z,949.97
2022-12-13T03:45:45.708Z,950
2022-12-13T03:46:45.591Z,949.98
2022-12-13T03:47:45.632Z,950
2022-12-13T03:48:45.549Z,949.99
2022-12-13T03:49:45.669Z,949.96
2022-12-13T03:50:45.716Z,949.94
2022-12-13T03:51:45.557Z,949.99
2022-12-13T03:52:45.584Z,949.96
2022-12-13T03:54:45.653Z,949.94
2022-12-13T03:55:45.563Z,949.96
2022-12-13T03:56:45.644Z,949.94
2022-12-13T03:57:45.723Z,949.97
2022-12-13T03:58:45.684Z,949.99
2022-12-13T03:59:45.660Z,949.98
2022-12-13T04:00:45.735Z,949.95
2022-12-13T04:01:45.760Z,949.9
2022-12-13T04:02:45.748Z,949.88
2022-12-13T04:03:45.741Z,949.86
2022-12-13T04:04:45.696Z,949.85
2022-12-13T04:07:48.423Z,949.86
2022-12-13T04:08:46.061Z,949.83
2022-12-13T04:09:45.613Z,949.84
2022-12-13T04:10:45.710Z,949.86
2022-12-13T04:12:48.280Z,949.83
2022-12-13T04:13:45.703Z,949.84
2022-12-13T04:16:45.718Z,949.85
2022-12-13T04:17:45.681Z,949.86
2022-12-13T04:18:45.879Z,949.85
2022-12-13T04:21:45.637Z,949.84
2022-12-13T04:22:45.747Z,949.82
2022-12-13T04:23:45.693Z,949.77
2022-12-13T04:24:45.640Z,949.73
2022-12-13T04:25:45.723Z,949.79
2022-12-13T04:26:45.640Z,949.75
2022-12-13T04:27:45.631Z,949.76
2022-12-13T04:28:49.433Z,949.8
2022-12-13T04:29:45.886Z,949.81
2022-12-13T04:30:45.646Z,949.82
2022-12-13T04:31:45.873Z,949.84
2022-12-13T04:33:45.770Z,949.79
2022-12-13T04:34:45.733Z,949.83
2022-12-13T04:35:45.811Z,949.8
2022-12-13T04:36:45.771Z,949.82
2022-12-13T04:37:45.741Z,949.8
2022-12-13T04:38:45.686Z,949.84
2022-12-13T04:40:45.818Z,949.86
2022-12-13T04:41:45.690Z,949.88
2022-12-13T04:42:45.778Z,949.85
2022-12-13T04:43:45.778Z,949.89
2022-12-13T04:44:46.210Z,949.85
2022-12-13T04:45:45.840Z,949.86
2022-12-13T04:46:45.752Z,949.83
2022-12-13T04:48:45.898Z,949.84
2022-12-13T04:49:45.755Z,949.78
2022-12-13T04:51:47.567Z,949.75
2022-12-13T04:52:45.900Z,949.79
2022-12-13T04:53:45.826Z,949.78
2022-12-13T04:54:45.797Z,949.73
2022-12-13T04:55:45.864Z,949.75
2022-12-13T04:56:46.073Z,949.76
2022-12-13T04:57:45.816Z,949.73
2022-12-13T04:58:45.856Z,949.72
2022-12-13T04:59:45.722Z,949.7
2022-12-13T05:00:45.827Z,949.71
2022-12-13T05:01:45.779Z,949.76
2022-12-13T05:02:45.850Z,949.71
2022-12-13T05:03:45.809Z,949.73
2022-12-13T05:05:45.836Z,949.75
2022-12-13T05:06:45.812Z,949.76
2022-12-13T05:07:46.749Z,949.8
2022-12-13T05:10:46.867Z,949.76
2022-12-13T05:11:46.153Z,949.74
2022-12-13T05:12:45.880Z,949.72
2022-12-13T05:13:45.876Z,949.71
2022-12-13T05:15:48.424Z,949.74
2022-12-13T05:17:45.788Z,949.71
2022-12-13T05:18:45.760Z,949.73
2022-12-13T05:19:45.888Z,949.76
2022-12-13T05:20:45.858Z,949.78
2022-12-13T05:21:45.829Z,949.8
2022-12-13T05:22:45.768Z,949.76
2022-12-13T05:23:45.872Z,949.78
2022-12-13T05:24:45.833Z,949.77
2022-12-13T05:25:45.901Z,949.75
2022-12-13T05:26:45.769Z,949.74
2022-12-13T05:27:45.867Z,949.72
2022-12-13T05:28:45.914Z,949.69
2022-12-13T05:29:45.877Z,949.72
2022-12-13T05:30:45.999Z,949.73
2022-12-13T05:31:45.959Z,949.71
2022-12-13T05:32:45.880Z,949.75
2022-12-13T05:33:46.883Z,949.73
2022-12-13T05:34:45.913Z,949.68
2022-12-13T05:35:45.875Z,949.7
2022-12-13T05:36:45.838Z,949.71
2022-12-13T05:37:45.817Z,949.7
2022-12-13T05:38:45.878Z,949.68
2022-12-13T05:39:45.797Z,949.67
2022-12-13T05:40:45.797Z,949.7
2022-12-13T05:41:45.870Z,949.64
2022-12-13T05:42:45.805Z,949.65
2022-12-13T05:43:45.818Z,949.64
2022-12-13T05:44:45.889Z,949.65
2022-12-13T05:45:45.999Z,949.63
2022-12-13T05:46:45.824Z,949.65
2022-12-13T05:47:45.821Z,949.62
2022-12-13T05:48:45.961Z,949.64
2022-12-13T05:49:45.823Z,949.61
2022-12-13T05:50:45.816Z,949.58
2022-12-13T05:51:45.977Z,949.66
2022-12-13T05:52:45.937Z,949.64
2022-12-13T05:53:50.067Z,949.71
2022-12-13T05:54:46.157Z,949.64
2022-12-13T05:55:45.929Z,949.68
2022-12-13T05:56:45.897Z,949.66
2022-12-13T05:57:49.999Z,949.67
2022-12-13T05:58:45.946Z,949.66
2022-12-13T05:59:45.906Z,949.69
2022-12-13T06:00:45.970Z,949.62
2022-12-13T06:01:45.934Z,949.63
2022-12-13T06:02:45.976Z,949.62
2022-12-13T06:03:45.957Z,949.59
2022-12-13T06:04:45.945Z,949.61
2022-12-13T06:05:46.011Z,949.57
2022-12-13T06:06:45.860Z,949.55
2022-12-13T06:07:45.947Z,949.57
2022-12-13T06:08:45.985Z,949.53
2022-12-13T06:09:45.878Z,949.54
2022-12-13T06:11:46.231Z,949.5
2022-12-13T06:12:45.982Z,949.54
2022-12-13T06:13:45.899Z,949.55
2022-12-13T06:14:46.021Z,949.54
2022-12-13T06:15:45.985Z,949.53
2022-12-13T06:16:46.014Z,949.59
2022-12-13T06:17:46.024Z,949.62
2022-12-13T06:18:46.003Z,949.61
2022-12-13T06:19:46.262Z,949.63
2022-12-13T06:21:46.407Z,949.64
2022-12-13T06:22:45.968Z,949.61
2022-12-13T06:24:45.998Z,949.65
2022-12-13T06:26:46.326Z,949.69
2022-12-13T06:27:45.919Z,949.68
2022-12-13T06:28:45.984Z,949.7
2022-12-13T06:29:45.906Z,949.69
2022-12-13T06:30:46.192Z,949.66
2022-12-13T06:31:46.085Z,949.65
2022-12-13T06:33:46.009Z,949.61
2022-12-13T06:35:46.097Z,949.64
2022-12-13T06:36:46.026Z,949.63
2022-12-13T06:37:46.093Z,949.64
2022-12-13T06:38:46.060Z,949.66
2022-12-13T06:39:45.929Z,949.71
2022-12-13T06:40:46.090Z,949.68
2022-12-13T06:41:46.068Z,949.71
2022-12-13T06:42:46.030Z,949.73
2022-12-13T06:43:45.993Z,949.74
2022-12-13T06:46:46.097Z,949.76
2022-12-13T06:48:46.227Z,949.72
2022-12-13T06:49:46.376Z,949.74
2022-12-13T06:50:46.179Z,949.76
2022-12-13T06:51:46.022Z,949.75
2022-12-13T06:52:46.105Z,949.74
2022-12-13T06:53:46.078Z,949.78
2022-12-13T06:54:46.048Z,949.75
2022-12-13T06:55:46.105Z,949.73
2022-12-13T06:56:46.080Z,949.8
2022-12-13T06:57:46.050Z,949.78
2022-12-13T06:58:46.118Z,949.77
2022-12-13T06:59:46.075Z,949.76
2022-12-13T07:00:48.682Z,949.73
2022-12-13T07:01:50.313Z,949.78
2022-12-13T07:03:46.252Z,949.8
2022-12-13T07:04:46.135Z,949.76
2022-12-13T07:05:46.078Z,949.8
2022-12-13T07:06:46.047Z,949.72
2022-12-13T07:08:46.119Z,949.71
2022-12-13T07:09:46.052Z,949.75
2022-12-13T07:10:46.131Z,949.78
2022-12-13T07:11:49.989Z,949.77
2022-12-13T07:12:46.012Z,949.74
2022-12-13T07:13:46.161Z,949.73
2022-12-13T07:14:46.110Z,949.78
2022-12-13T07:15:46.229Z,949.81
2022-12-13T07:17:46.036Z,949.88
2022-12-13T07:18:46.066Z,949.87
2022-12-13T07:19:46.158Z,949.88
2022-12-13T07:20:46.024Z,949.85
2022-12-13T07:22:48.608Z,949.81
2022-12-13T07:23:46.284Z,949.83
2022-12-13T07:24:46.336Z,949.8
2022-12-13T07:25:46.140Z,949.85
2022-12-13T07:27:46.174Z,949.87
2022-12-13T07:28:48.972Z,949.86
2022-12-13T07:29:46.252Z,949.87
2022-12-13T07:30:46.195Z,949.84
2022-12-13T07:31:46.076Z,949.81
2022-12-13T07:32:46.112Z,949.82
2022-12-13T07:33:46.178Z,949.85
2022-12-13T07:34:46.067Z,949.86
2022-12-13T07:35:46.116Z,949.87
2022-12-13T07:36:46.206Z,949.88
2022-12-13T07:37:46.149Z,949.91
2022-12-13T07:39:46.195Z,949.99
2022-12-13T07:40:46.097Z,949.98
2022-12-13T07:41:46.233Z,949.97
2022-12-13T07:42:46.062Z,949.98
2022-12-13T07:43:46.074Z,949.99
2022-12-13T07:44:46.234Z,950.03
2022-12-13T07:45:46.095Z,949.99
2022-12-13T07:46:46.103Z,950.03
2022-12-13T07:47:46.230Z,950
2022-12-13T07:48:46.081Z,950.03
2022-12-13T07:49:46.164Z,950.02
2022-12-13T07:50:46.240Z,949.99
2022-12-13T07:51:46.203Z,950.02
2022-12-13T07:53:46.110Z,950
2022-12-13T07:55:46.176Z,950.02
2022-12-13T07:57:46.216Z,950.09
2022-12-13T07:58:46.180Z,950.08
2022-12-13T07:59:46.264Z,950.06
2022-12-13T08:00:46.751Z,950.08
2022-12-13T08:02:46.251Z,950.12
2022-12-13T08:04:46.368Z,950.1
2022-12-13T08:05:47.267Z,950.11
2022-12-13T08:06:46.217Z,950.08
2022-12-13T08:07:46.193Z,950.05
2022-12-13T08:08:46.152Z,950.09
2022-12-13T08:09:51.086Z,950.11
2022-12-13T08:11:46.270Z,950.15
2022-12-13T08:12:46.139Z,950.16
2022-12-13T08:13:46.190Z,950.13
2022-12-13T08:15:46.285Z,950.12
2022-12-13T08:16:46.190Z,950.16
2022-12-13T08:17:46.286Z,950.19
2022-12-13T08:18:46.145Z,950.21
2022-12-13T08:19:46.334Z,950.2
2022-12-13T08:21:55.449Z,950.17
2022-12-13T08:22:49.524Z,950.2
2022-12-13T08:23:46.386Z,950.24
2022-12-13T08:26:46.282Z,950.22
2022-12-13T08:27:46.257Z,950.25
2022-12-13T08:28:47.183Z,950.29
2022-12-13T08:30:46.271Z,950.33
2022-12-13T08:31:46.356Z,950.3
2022-12-13T08:32:46.287Z,950.34
2022-12-13T08:33:46.248Z,950.3
2022-12-13T08:34:46.177Z,950.35
2022-12-13T08:35:46.299Z,950.34
2022-12-13T08:36:46.269Z,950.29
2022-12-13T08:37:46.336Z,950.33
2022-12-13T08:38:46.300Z,950.29
2022-12-13T08:39:46.256Z,950.25
2022-12-13T08:40:46.239Z,950.27
2022-12-13T08:41:46.216Z,950.26
2022-12-13T08:42:46.272Z,950.27
2022-12-13T08:43:46.203Z,950.28
2022-12-13T08:45:46.267Z,950.27
2022-12-13T08:46:46.377Z,950.25
2022-12-13T08:47:46.224Z,950.3
2022-12-13T08:48:46.283Z,950.32
2022-12-13T08:49:47.288Z,950.37
2022-12-13T08:50:46.230Z,950.34
2022-12-13T08:51:46.281Z,950.38
2022-12-13T08:52:46.239Z,950.4
2022-12-13T08:53:46.232Z,950.45
2022-12-13T08:55:46.233Z,950.49
2022-12-13T08:56:46.320Z,950.52
2022-12-13T08:57:47.317Z,950.51
2022-12-13T08:58:46.245Z,950.54
2022-12-13T08:59:46.338Z,950.52
2022-12-13T09:00:46.444Z,950.55
2022-12-13T09:01:46.425Z,950.57
2022-12-13T09:02:46.369Z,950.56
2022-12-13T09:03:46.414Z,950.59
2022-12-13T09:04:46.360Z,950.6
2022-12-13T09:05:46.336Z,950.58
2022-12-13T09:06:46.398Z,950.62
2022-12-13T09:07:46.262Z,950.6
2022-12-13T09:08:51.645Z,950.61
2022-12-13T09:11:46.410Z,950.6
2022-12-13T09:12:46.416Z,950.59
2022-12-13T09:13:46.375Z,950.61
2022-12-13T09:14:46.609Z,950.57
2022-12-13T09:15:46.468Z,950.54
2022-12-13T09:16:50.699Z,950.51
2022-12-13T09:17:52.181Z,950.54
2022-12-13T09:18:46.595Z,950.58
2022-12-13T09:19:46.770Z,950.54
2022-12-13T09:20:46.506Z,950.55
2022-12-13T09:21:46.299Z,950.6
2022-12-13T09:22:46.558Z,950.54
2022-12-13T09:23:46.537Z,950.59
2022-12-13T09:24:50.113Z,950.52
2022-12-13T09:25:52.626Z,950.54
2022-12-13T09:26:46.480Z,950.53
2022-12-13T09:27:46.432Z,950.55
2022-12-13T09:28:46.417Z,950.5
2022-12-13T09:29:46.468Z,950.51
2022-12-13T09:30:46.312Z,950.53
2022-12-13T09:31:51.093Z,950.5
2022-12-13T09:32:46.311Z,950.47
2022-12-13T09:33:46.334Z,950.43
2022-12-13T09:34:46.440Z,950.44
2022-12-13T09:35:46.318Z,950.41
2022-12-13T09:36:46.438Z,950.27
2022-12-13T09:37:46.456Z,950.35
2022-12-13T09:38:46.477Z,950.4
2022-12-13T09:39:46.455Z,950.43
2022-12-13T09:40:46.400Z,950.41
2022-12-13T09:41:46.333Z,950.4
2022-12-13T09:42:46.443Z,950.37
2022-12-13T09:43:46.677Z,950.44
2022-12-13T09:44:51.702Z,950.4
2022-12-13T09:45:46.658Z,950.39
2022-12-13T09:46:46.440Z,950.37
2022-12-13T09:47:46.736Z,950.29
2022-12-13T09:48:48.422Z,950.4
2022-12-13T09:49:52.922Z,950.38
2022-12-13T09:50:57.846Z,950.3
2022-12-13T09:51:52.961Z,950.32
2022-12-13T09:52:46.446Z,950.34
2022-12-13T09:54:48.941Z,950.47
2022-12-13T09:55:46.528Z,950.41
2022-12-13T09:56:46.519Z,950.45
2022-12-13T09:57:46.473Z,950.43
2022-12-13T09:58:46.528Z,950.41
2022-12-13T09:59:46.504Z,950.37
2022-12-13T10:00:46.485Z,950.39
2022-12-13T10:02:46.542Z,950.42
2022-12-13T10:03:46.480Z,950.4
2022-12-13T10:04:46.539Z,950.38
2022-12-13T10:06:46.552Z,950.37
2022-12-13T10:07:46.547Z,950.34
2022-12-13T10:08:46.576Z,950.32
2022-12-13T10:10:46.441Z,950.31
2022-12-13T10:11:50.327Z,950.26
2022-12-13T10:12:46.632Z,950.28
2022-12-13T10:13:46.411Z,950.24
2022-12-13T10:14:46.526Z,950.22
2022-12-13T10:15:46.488Z,950.24
2022-12-13T10:17:50.119Z,950.21
2022-12-13T10:18:46.906Z,950.19
2022-12-13T10:19:46.418Z,950.18
2022-12-13T10:20:46.529Z,950.17
2022-12-13T10:21:46.493Z,950.14
2022-12-13T10:24:07.182Z,950.16
2022-12-13T10:24:46.665Z,950.12
2022-12-13T10:25:46.605Z,950.09
2022-12-13T10:26:46.694Z,950.11
2022-12-13T10:28:46.568Z,950.16
2022-12-13T10:29:46.546Z,950.13
2022-12-13T10:30:46.871Z,950.11
2022-12-13T10:31:46.662Z,950.14
2022-12-13T10:32:46.540Z,950.1
2022-12-13T10:33:46.610Z,950.06
2022-12-13T10:34:46.469Z,950.07
2022-12-13T10:35:46.551Z,950.05
2022-12-13T10:36:46.511Z,950.03
2022-12-13T10:37:46.482Z,950.02
2022-12-13T10:38:46.483Z,950.06
2022-12-13T10:39:47.790Z,950.05
2022-12-13T10:41:46.574Z,950.1
2022-12-13T10:42:46.619Z,950.11
2022-12-13T10:43:46.617Z,950.12
2022-12-13T10:44:46.562Z,950.1
2022-12-13T10:45:46.852Z,950.11
2022-12-13T10:46:46.594Z,950.09
2022-12-13T10:48:46.629Z,950.08
2022-12-13T10:49:46.610Z,950.03
2022-12-13T10:51:46.646Z,950.07
2022-12-13T10:52:46.601Z,950.1
2022-12-13T10:53:47.583Z,950.09
2022-12-13T10:54:48.280Z,950.06
2022-12-13T10:55:46.498Z,950.04
2022-12-13T10:56:46.585Z,950.02
2022-12-13T10:57:46.649Z,950.01
2022-12-13T10:58:46.613Z,950.02
2022-12-13T10:59:46.598Z,950.01
2022-12-13T11:00:46.699Z,950
2022-12-13T11:01:46.615Z,949.94
2022-12-13T11:02:46.577Z,950.01
2022-12-13T11:03:46.531Z,950.04
2022-12-13T11:04:46.614Z,950
2022-12-13T11:05:46.684Z,950.03
2022-12-13T11:06:46.537Z,949.99
2022-12-13T11:07:46.526Z,949.96
2022-12-13T11:08:46.599Z,949.98
2022-12-13T11:09:52.252Z,949.95
2022-12-13T11:10:46.755Z,949.91
2022-12-13T11:11:47.943Z,949.94
2022-12-13T11:12:46.656Z,949.96
2022-12-13T11:13:46.631Z,949.97
2022-12-13T11:14:46.703Z,950
2022-12-13T11:15:46.667Z,949.95
2022-12-13T11:16:46.599Z,949.96
2022-12-13T11:17:46.579Z,949.98
2022-12-13T11:18:46.671Z,949.97
2022-12-13T11:19:46.675Z,949.96
2022-12-13T11:20:49.989Z,950.02
2022-12-13T11:21:46.685Z,949.99
2022-12-13T11:23:46.710Z,949.95
2022-12-13T11:24:46.671Z,949.97
2022-12-13T11:25:46.639Z,949.91
2022-12-13T11:26:48.788Z,949.94
2022-12-13T11:27:46.867Z,949.93
2022-12-13T11:28:46.640Z,949.88
2022-12-13T11:30:46.689Z,949.84
2022-12-13T11:31:46.662Z,949.83
2022-12-13T11:33:47.522Z,949.79
2022-12-13T11:34:46.906Z,949.74
2022-12-13T11:35:48.042Z,949.78
2022-12-13T11:36:46.697Z,949.76
2022-12-13T11:37:48.408Z,949.75
2022-12-13T11:38:46.720Z,949.76
2022-12-13T11:39:46.692Z,949.73
2022-12-13T11:40:46.759Z,949.72
2022-12-13T11:41:47.045Z,949.69
2022-12-13T11:42:46.776Z,949.66
2022-12-13T11:45:46.715Z,949.67
2022-12-13T11:46:46.779Z,949.65
2022-12-13T11:47:46.732Z,949.64
2022-12-13T11:49:46.777Z,949.66
2022-12-13T11:50:46.734Z,949.64
2022-12-13T11:51:46.950Z,949.67
2022-12-13T11:52:46.675Z,949.63
2022-12-13T11:53:46.738Z,949.66
2022-12-13T11:54:46.820Z,949.67
2022-12-13T11:55:47.640Z,949.65
2022-12-13T11:56:46.747Z,949.67
2022-12-13T11:57:46.718Z,949.63
2022-12-13T11:59:02.816Z,949.65
2022-12-13T11:59:47.211Z,949.58
2022-12-13T12:00:46.827Z,949.65
2022-12-13T12:01:46.649Z,949.61
2022-12-13T12:02:46.890Z,949.62
2022-12-13T12:03:46.783Z,949.63
2022-12-13T12:05:46.687Z,949.59
2022-12-13T12:06:46.822Z,949.58
2022-12-13T12:08:47.123Z,949.54
2022-12-13T12:10:49.954Z,949.51
2022-12-13T12:11:46.699Z,949.53
2022-12-13T12:13:50.625Z,949.58
2022-12-13T12:14:46.674Z,949.55
2022-12-13T12:15:46.735Z,949.52
2022-12-13T12:16:46.686Z,949.56
2022-12-13T12:17:46.765Z,949.55
2022-12-13T12:18:46.738Z,949.5
2022-12-13T12:19:46.711Z,949.53
2022-12-13T12:20:46.712Z,949.52
2022-12-13T12:22:13.063Z,949.55
2022-12-13T12:22:46.978Z,949.49
2022-12-13T12:23:52.374Z,949.51
2022-12-13T12:24:46.850Z,949.54
2022-12-13T12:25:46.813Z,949.52
2022-12-13T12:26:46.783Z,949.55
2022-12-13T12:27:46.710Z,949.6
2022-12-13T12:28:46.715Z,949.57
2022-12-13T12:29:46.787Z,949.54
2022-12-13T12:30:46.903Z,949.55
2022-12-13T12:31:50.517Z,949.43
2022-12-13T12:32:46.905Z,949.57
2022-12-13T12:33:46.859Z,949.58
2022-12-13T12:34:46.825Z,949.56
2022-12-13T12:35:46.885Z,949.54
2022-12-13T12:36:47.851Z,949.56
2022-12-13T12:37:46.730Z,949.58
2022-12-13T12:39:46.765Z,949.6
2022-12-13T12:41:14.952Z,949.61
2022-12-13T12:41:46.914Z,949.6
2022-12-13T12:43:13.666Z,949.62
2022-12-13T12:43:46.985Z,949.63
2022-12-13T12:44:46.756Z,949.62
2022-12-13T12:45:56.148Z,949.63
2022-12-13T12:47:09.377Z,949.65
2022-12-13T12:48:39.750Z,949.66
2022-12-13T12:48:56.837Z,949.67
2022-12-13T12:49:46.980Z,949.71
2022-12-13T12:50:46.914Z,949.7
2022-12-13T12:51:46.766Z,949.73
2022-12-13T12:52:46.848Z,949.76
2022-12-13T12:53:46.767Z,949.77
2022-12-13T12:54:46.767Z,949.71
2022-12-13T12:55:46.846Z,949.73
2022-12-13T12:56:48.446Z,949.74
2022-12-13T12:57:46.892Z,949.72
2022-12-13T12:58:46.780Z,949.74
2022-12-13T12:59:46.822Z,949.7
2022-12-13T13:00:46.991Z,949.72
2022-12-13T13:01:46.933Z,949.73
2022-12-13T13:02:48.016Z,949.72
2022-12-13T13:03:46.966Z,949.7
2022-12-13T13:04:46.866Z,949.69
2022-12-13T13:05:46.932Z,949.72
2022-12-13T13:06:46.902Z,949.69
2022-12-13T13:07:51.339Z,949.7
2022-12-13T13:08:51.591Z,949.73
2022-12-13T13:09:47.050Z,949.77
2022-12-13T13:10:49.975Z,949.75
2022-12-13T13:11:46.942Z,949.76
2022-12-13T13:12:46.910Z,949.81
2022-12-13T13:13:47.154Z,949.79
2022-12-13T13:14:46.943Z,949.77
2022-12-13T13:15:46.921Z,949.76
2022-12-13T13:17:46.941Z,949.8
2022-12-13T13:18:46.913Z,949.77
2022-12-13T13:19:46.828Z,949.71
2022-12-13T13:20:46.860Z,949.72
2022-12-13T13:21:46.926Z,949.59
2022-12-13T13:22:53.952Z,949.74
2022-12-13T13:23:47.209Z,949.77
2022-12-13T13:24:46.920Z,949.78
2022-12-13T13:26:15.555Z,949.77
2022-12-13T13:26:47.071Z,949.84
2022-12-13T13:27:46.924Z,949.83
2022-12-13T13:29:46.958Z,949.86
2022-12-13T13:30:46.987Z,949.82
2022-12-13T13:31:46.994Z,949.83
2022-12-13T13:32:46.960Z,949.82
2022-12-13T13:33:46.932Z,949.81
2022-12-13T13:34:47.005Z,949.84
2022-12-13T13:36:46.935Z,949.82
2022-12-13T13:37:46.910Z,949.8
2022-12-13T13:38:46.998Z,949.79
2022-12-13T13:39:46.946Z,949.77
2022-12-13T13:40:46.880Z,949.76
2022-12-13T13:41:46.969Z,949.7
2022-12-13T13:42:46.982Z,949.69
2022-12-13T13:43:47.013Z,949.68
2022-12-13T13:44:46.979Z,949.67
2022-12-13T13:45:46.949Z,949.69
2022-12-13T13:46:47.036Z,949.7
2022-12-13T13:47:46.913Z,949.71
2022-12-13T13:48:46.952Z,949.7
2022-12-13T13:49:46.882Z,949.71
2022-12-13T13:50:47.167Z,949.68
2022-12-13T13:52:16.529Z,949.72
2022-12-13T13:52:47.152Z,949.7
2022-12-13T13:54:48.320Z,949.73
2022-12-13T13:55:47.040Z,949.74
2022-12-13T13:56:50.122Z,949.71
2022-12-13T13:58:08.634Z,949.72
2022-12-13T13:58:47.058Z,949.73
2022-12-13T14:00:47.069Z,949.74
2022-12-13T14:01:47.089Z,949.7
2022-12-13T14:02:47.057Z,949.65
2022-12-13T14:03:46.951Z,949.66
2022-12-13T14:04:47.045Z,949.64
2022-12-13T14:05:47.009Z,949.65